White Mills, Kentucky
Current Conditions -  °F | °C
As of 1:13 AM on Monday 26 Jan 2015 (Local Time) from KFTK Reporting Station
Light Snow Light Snow  
Wind Chill: 25°   Ceiling: 400
Heat Index: 34°   Visibility: 7mi
Dew Point: 32°   Wind: 12mph
Humidity: 93%   Direction: 310°NW
Pressure: 29.72"   Gusts: NA
Location:  37.56°N, 86.03°W
Report Text: KFTK 260613Z AUTO 31010KT 7SM R18/5500FT -SN OVC004 01/00 A2972 RMK AO2 SNB0601RAE0601
Loading
Personal Weather Stations






























Interactive Weather Map New forecast layout! Learn more

10-Day Weather Forecast

Advertisements
Track Severe Weather on mobile